Terminal Aerodrome Forecast
Issued by NWS

Home | Current Version | Previous Version | Text Only | Print | Product List | Glossary On
Versions: 1 2 3 4 5 6 7 8 9 10 11 12 13 14 15 16 17 18
298
FTUS44 KLIX 221720
TAFMCB
TAF
KMCB 221720Z 2218/2318 25012G22KT P6SM SCT130
     FM230400 30013KT P6SM OVC015
     FM231200 32011KT P6SM BKN020
     FM231300 32011KT P6SM BKN040
     FM231500 32011KT P6SM SCT060=

USA.gov is the U.S. government's official web portal to all federal, state and local government web resources and services.